Time;durP1;ratioP1;P1;durP2;ratioP2;P2;SDS_P1;SDS_P2;PMS_P1;PMS_P2;Temp;Humidity;BMP_temperature;BMP_pressure;BME280_temperature;BME280_humidity;BME280_pressure;Samples;Min_cycle;Max_cycle;Signal;HPM_P1;HPM_P2
2021/11/23 00:02:20;;;;;;;23.67;13.13;;;;;;;;;;5009098;28;20068;-63
2021/11/23 00:04:46;;;;;;;22.50;13.20;;;;;;;;;;5010197;28;20109;-64
2021/11/23 00:07:12;;;;;;;25.25;14.55;;;;;;;;;;5027666;22;20094;-63
2021/11/23 00:09:38;;;;;;;26.17;13.88;;;;;;;;;;5031914;28;20029;-63
2021/11/23 00:12:04;;;;;;;23.70;13.55;;;;;;;;;;5030104;28;20022;-63
2021/11/23 00:14:30;;;;;;;23.98;14.02;;;;;;;;;;5030095;28;20096;-63
2021/11/23 00:16:56;;;;;;;22.40;13.00;;;;;;;;;;5030555;28;20029;-63
2021/11/23 00:19:22;;;;;;;22.50;13.10;;;;;;;;;;5032590;28;20497;-62
2021/11/23 00:21:48;;;;;;;22.13;13.13;;;;;;;;;;5032471;28;20030;-63
2021/11/23 00:24:14;;;;;;;25.10;13.55;;;;;;;;;;5032830;28;20024;-63
2021/11/23 00:26:40;;;;;;;23.00;12.68;;;;;;;;;;5033860;28;20022;-65
2021/11/23 00:29:06;;;;;;;23.15;12.95;;;;;;;;;;5034838;28;20469;-63
2021/11/23 00:31:31;;;;;;;25.75;13.88;;;;;;;;;;5035454;28;20029;-63
2021/11/23 00:33:57;;;;;;;22.33;12.73;;;;;;;;;;5033972;28;20031;-62
2021/11/23 00:36:24;;;;;;;25.17;13.60;;;;;;;;;;5035473;28;20025;-63
2021/11/23 00:38:50;;;;;;;26.15;13.60;;;;;;;;;;5035137;28;20064;-63
2021/11/23 00:41:17;;;;;;;23.40;13.00;;;;;;;;;;5033846;28;20030;-63
2021/11/23 00:43:43;;;;;;;26.95;14.00;;;;;;;;;;5033681;28;20045;-63
2021/11/23 00:46:10;;;;;;;26.52;13.73;;;;;;;;;;5034022;28;20026;-63
2021/11/23 00:48:36;;;;;;;23.27;13.07;;;;;;;;;;5032909;28;20075;-64
2021/11/23 00:51:02;;;;;;;23.38;14.48;;;;;;;;;;5033794;28;20408;-63
2021/11/23 00:53:28;;;;;;;24.13;13.88;;;;;;;;;;5034692;28;20393;-63
2021/11/23 00:55:55;;;;;;;25.35;15.18;;;;;;;;;;5033756;28;20057;-63
2021/11/23 00:58:21;;;;;;;23.90;12.93;;;;;;;;;;5033695;28;20031;-63
2021/11/23 01:00:47;;;;;;;23.38;13.15;;;;;;;;;;5034219;28;20469;-63
2021/11/23 01:03:13;;;;;;;24.42;13.25;;;;;;;;;;5033451;28;20029;-63
2021/11/23 01:05:40;;;;;;;28.65;14.40;;;;;;;;;;5034753;28;20021;-63
2021/11/23 01:08:06;;;;;;;25.30;13.23;;;;;;;;;;5033284;28;20493;-63
2021/11/23 01:10:32;;;;;;;23.00;12.35;;;;;;;;;;5033585;28;20501;-63
2021/11/23 01:12:58;;;;;;;27.55;14.02;;;;;;;;;;5034443;28;20073;-63
2021/11/23 01:15:24;;;;;;;25.52;13.50;;;;;;;;;;5033280;28;20052;-63
2021/11/23 01:17:50;;;;;;;27.55;14.13;;;;;;;;;;5033101;28;20022;-63
2021/11/23 01:20:16;;;;;;;23.35;13.55;;;;;;;;;;5034412;28;20025;-63
2021/11/23 01:22:44;;;;;;;24.30;12.95;;;;;;;;;;5034194;28;20025;-64
2021/11/23 01:25:10;;;;;;;24.67;13.25;;;;;;;;;;5033184;28;20116;-64
2021/11/23 01:27:36;;;;;;;21.40;12.35;;;;;;;;;;5033948;28;20477;-65
2021/11/23 01:30:03;;;;;;;27.58;13.40;;;;;;;;;;5034245;28;20477;-64
2021/11/23 01:32:29;;;;;;;22.20;12.55;;;;;;;;;;5034263;28;20474;-64
2021/11/23 01:34:55;;;;;;;24.17;14.88;;;;;;;;;;5034302;28;20029;-63
2021/11/23 01:37:21;;;;;;;24.02;12.20;;;;;;;;;;5034056;28;20469;-64
2021/11/23 01:39:47;;;;;;;22.45;12.30;;;;;;;;;;5032900;28;20079;-64
2021/11/23 01:42:13;;;;;;;23.60;12.90;;;;;;;;;;5033863;28;20428;-64
2021/11/23 01:44:39;;;;;;;20.50;11.82;;;;;;;;;;5033900;28;20030;-64
2021/11/23 01:47:05;;;;;;;21.77;12.73;;;;;;;;;;5033652;28;20057;-64
2021/11/23 01:49:31;;;;;;;23.33;12.40;;;;;;;;;;5033589;28;20049;-64
2021/11/23 01:51:58;;;;;;;23.75;13.98;;;;;;;;;;5034427;28;20032;-64
2021/11/23 01:54:24;;;;;;;23.75;12.63;;;;;;;;;;5033343;28;20025;-64
2021/11/23 01:56:50;;;;;;;21.67;12.63;;;;;;;;;;5033888;28;20057;-64
2021/11/23 01:59:16;;;;;;;24.65;12.63;;;;;;;;;;5032331;28;20021;-64
2021/11/23 02:01:42;;;;;;;22.25;12.32;;;;;;;;;;5032200;28;20055;-64
2021/11/23 02:04:08;;;;;;;21.65;12.25;;;;;;;;;;5033670;28;20024;-64
2021/11/23 02:06:34;;;;;;;23.13;13.57;;;;;;;;;;5033449;28;20033;-64
2021/11/23 02:09:00;;;;;;;22.02;11.63;;;;;;;;;;5032274;28;20387;-64
2021/11/23 02:11:26;;;;;;;22.08;11.55;;;;;;;;;;5033317;28;20026;-64
2021/11/23 02:13:53;;;;;;;22.85;11.60;;;;;;;;;;5033255;28;20109;-64
2021/11/23 02:16:19;;;;;;;23.88;11.55;;;;;;;;;;5033308;28;20124;-63
2021/11/23 02:18:45;;;;;;;20.02;10.93;;;;;;;;;;5033170;28;20021;-64
2021/11/23 02:21:11;;;;;;;20.85;11.30;;;;;;;;;;5032985;28;20717;-63
2021/11/23 02:23:37;;;;;;;19.17;10.13;;;;;;;;;;5032966;28;20124;-63
2021/11/23 02:26:03;;;;;;;24.88;11.73;;;;;;;;;;5033346;28;20032;-64
2021/11/23 02:28:29;;;;;;;18.08;8.85;;;;;;;;;;5031763;28;20123;-64
2021/11/23 02:30:57;;;;;;;21.80;12.65;;;;;;;;;;5031651;28;20036;-64
2021/11/23 02:33:24;;;;;;;25.98;12.45;;;;;;;;;;5032872;28;20018;-64
2021/11/23 02:35:52;;;;;;;22.15;12.07;;;;;;;;;;5031523;28;20072;-64
2021/11/23 02:38:18;;;;;;;21.15;10.68;;;;;;;;;;5032928;28;20047;-64
2021/11/23 02:40:44;;;;;;;21.38;12.45;;;;;;;;;;5032158;28;20083;-64
2021/11/23 02:43:11;;;;;;;22.35;12.20;;;;;;;;;;5032546;28;20022;-64
2021/11/23 02:45:37;;;;;;;20.90;12.35;;;;;;;;;;5032900;28;20057;-64
2021/11/23 02:48:03;;;;;;;24.17;12.43;;;;;;;;;;5032605;28;20447;-62
2021/11/23 02:50:29;;;;;;;22.45;13.27;;;19.00;77.20;;;;;;5032807;28;20029;-62
2021/11/23 02:52:55;;;;;;;24.20;12.70;;;2.90;99.90;;;;;;5032504;28;20500;-62
2021/11/23 02:55:25;;;;;;;21.95;11.93;;;2.50;99.90;;;;;;5031615;28;20083;-64
2021/11/23 02:57:51;;;;;;;24.20;14.52;;;2.60;99.90;;;;;;5031423;28;20051;-64
2021/11/23 03:00:24;;;;;;;23.30;11.52;;;2.70;99.90;;;;;;5032558;28;20101;-64
2021/11/23 03:02:50;;;;;;;22.80;12.70;;;2.70;99.90;;;;;;5032262;28;20025;-64
2021/11/23 03:05:19;;;;;;;24.73;13.18;;;2.70;99.90;;;;;;5031452;28;20030;-64
2021/11/23 03:07:45;;;;;;;;;;;2.70;99.90;;;;;;5031525;28;20030;-65
2021/11/23 03:10:11;;;;;;;21.08;11.27;;;2.70;99.90;;;;;;5031132;28;19909;-64
2021/11/23 03:12:38;;;;;;;22.98;12.75;;;2.70;99.90;;;;;;5032266;28;20021;-64
2021/11/23 03:15:07;;;;;;;23.65;11.93;;;2.70;99.90;;;;;;5031063;28;20029;-62
2021/11/23 03:17:33;;;;;;;21.98;12.48;;;;;;;;;;5031002;28;20028;-62
2021/11/23 03:19:59;;;;;;;22.35;12.40;;;;;;;;;;5032290;28;20025;-62
2021/11/23 03:22:25;;;;;;;22.65;11.85;;;;;;;;;;5031509;28;20025;-62
2021/11/23 03:24:51;;;;;;;20.83;11.55;;;;;;;;;;5031160;28;20051;-62
2021/11/23 03:27:17;;;;;;;26.45;12.85;;;;;;;;;;5032115;28;20103;-62
2021/11/23 03:29:43;;;;;;;23.02;11.85;;;;;;;;;;5032329;28;20105;-62
2021/11/23 03:32:10;;;;;;;23.60;11.32;;;;;;;;;;5031822;28;20029;-62
2021/11/23 03:34:40;;;;;;;23.88;11.95;;;;;;;;;;5030681;28;20029;-62
2021/11/23 03:37:07;;;;;;;23.10;12.13;;;;;;;;;;5031647;28;20036;-63
2021/11/23 03:39:33;;;;;;;23.95;11.02;;;;;;;;;;5032228;28;20416;-63
2021/11/23 03:41:59;;;;;;;22.08;11.35;;;;;;;;;;5031761;28;20018;-63
2021/11/23 03:44:26;;;;;;;21.05;11.10;;;;;;;;;;5031085;28;20022;-63
2021/11/23 03:46:52;;;;;;;21.30;10.70;;;;;;;;;;5031984;28;20104;-63
2021/11/23 03:49:18;;;;;;;21.15;10.95;;;;;;;;;;5032041;28;20033;-63
2021/11/23 03:51:44;;;;;;;21.38;10.75;;;;;;;;;;5032580;28;20037;-63
2021/11/23 03:54:10;;;;;;;24.10;12.63;;;;;;;;;;5036122;28;20034;-63
2021/11/23 03:56:36;;;;;;;21.25;10.43;;;;;;;;;;5034646;28;20033;-62
2021/11/23 03:59:03;;;;;;;22.25;11.65;;;;;;;;;;5035822;28;20037;-63
2021/11/23 04:01:28;;;;;;;23.80;12.35;;;;;;;;;;5035759;28;20029;-63
2021/11/23 04:03:54;;;;;;;20.75;11.38;;;;;;;;;;5035589;28;20377;-62
2021/11/23 04:06:20;;;;;;;25.63;12.23;;;;;;;;;;5034459;28;20059;-63
2021/11/23 04:08:46;;;;;;;23.85;12.43;;;;;;;;;;5035591;28;20108;-63
2021/11/23 04:11:12;;;;;;;22.25;13.13;;;;;;;;;;5034397;28;20033;-62
2021/11/23 04:13:40;;;;;;;25.20;14.57;;;;;;;;;;5034296;28;20022;-63
2021/11/23 04:16:06;;;;;;;23.77;13.07;;;;;;;;;;5035930;28;20018;-63
2021/11/23 04:18:32;;;;;;;24.90;13.85;;;;;;;;;;5035491;28;20024;-63
2021/11/23 04:20:58;;;;;;;23.10;12.85;;;;;;;;;;5034048;28;20029;-63
2021/11/23 04:23:24;;;;;;;25.15;12.50;;;;;;;;;;5035232;28;20021;-63
2021/11/23 04:25:50;;;;;;;25.73;12.80;;;;;;;;;;5034072;28;20088;-62
2021/11/23 04:28:16;;;;;;;23.08;12.05;;;;;;;;;;5035374;28;20029;-63
2021/11/23 04:30:42;;;;;;;26.63;13.68;;;;;;;;;;5035325;28;20617;-63
2021/11/23 04:33:13;;;;;;;24.27;13.55;;;;;;;;;;5033550;28;20036;-63
2021/11/23 04:35:39;;;;;;;25.08;12.70;;;;;;;;;;5035166;28;20079;-63
2021/11/23 04:38:05;;;;;;;28.58;14.35;;;;;;;;;;5035206;28;20029;-63
2021/11/23 04:40:31;;;;;;;27.08;13.60;;;;;;;;;;5035322;28;20021;-63
2021/11/23 04:42:57;;;;;;;28.00;13.60;;;;;;;;;;5034938;28;20648;-64
2021/11/23 04:45:23;;;;;;;23.80;13.93;;;;;;;;;;5033962;28;20029;-63
2021/11/23 04:47:49;;;;;;;22.10;10.95;;;;;;;;;;5033914;28;20028;-62
2021/11/23 04:50:15;;;;;;;26.63;13.38;;;;;;;;;;5033758;28;20014;-63
2021/11/23 04:52:41;;;;;;;26.27;14.77;;;;;;;;;;5033489;28;20145;-63
2021/11/23 04:55:09;;;;;;;25.70;13.90;;;;;;;;;;5035311;28;20133;-63
2021/11/23 04:57:35;;;;;;;25.80;12.98;;;;;;;;;;5033588;28;20033;-63
2021/11/23 05:00:01;;;;;;;26.42;13.27;;;;;;;;;;5034056;28;20124;-63
2021/11/23 05:02:28;;;;;;;27.65;14.55;;;;;;;;;;5032808;28;20032;-63
2021/11/23 05:04:54;;;;;;;26.75;15.45;;;;;;;;;;5033453;28;20236;-63
2021/11/23 05:07:20;;;;;;;28.80;14.35;;;;;;;;;;5034227;28;20026;-63
2021/11/23 05:09:45;;;;;;;24.17;14.50;;;;;;;;;;5033333;28;20037;-63
2021/11/23 05:12:11;;;;;;;26.65;15.88;;;;;;;;;;5034319;28;20033;-63
2021/11/23 05:14:37;;;;;;;26.70;16.10;;;;;;;;;;5034624;28;20030;-63
2021/11/23 05:17:04;;;;;;;28.70;16.05;;;;;;;;;;5032966;28;20025;-63
2021/11/23 05:19:29;;;;;;;29.50;18.67;;;;;;;;;;5032944;28;20485;-62
2021/11/23 05:21:55;;;;;;;30.88;19.30;;;;;;;;;;5032652;28;20059;-62
2021/11/23 05:24:22;;;;;;;29.20;18.77;;;;;;;;;;5034381;28;20108;-63
2021/11/23 05:26:49;;;;;;;33.53;22.10;;;;;;;;;;5034324;28;20033;-62
2021/11/23 05:29:15;;;;;;;34.72;22.92;;;;;;;;;;5035367;28;20025;-62
2021/11/23 05:31:41;;;;;;;36.67;23.65;;;;;;;;;;5032520;28;20497;-62
2021/11/23 05:34:07;;;;;;;36.08;24.13;;;;;;;;;;5033017;28;20088;-63
2021/11/23 05:36:34;;;;;;;36.22;22.77;;;;;;;;;;5034380;28;20026;-63
2021/11/23 05:39:00;;;;;;;37.08;24.33;;;;;;;;;;5033876;28;20084;-62
2021/11/23 05:41:26;;;;;;;37.92;24.50;;;;;;;;;;5034321;28;20032;-62
2021/11/23 05:43:52;;;;;;;36.90;25.17;;;;;;;;;;5032903;28;20486;-64
2021/11/23 05:46:18;;;;;;;42.78;26.42;;;;;;;;;;5033086;28;20120;-63
2021/11/23 05:48:44;;;;;;;40.45;26.75;;;;;;;;;;5032656;28;20030;-63
2021/11/23 05:51:12;;;;;;;39.53;26.13;;;;;;;;;;5032745;28;20060;-63
2021/11/23 05:53:41;;;;;;;43.25;27.60;;;;;;;;;;5033463;28;20025;-63
2021/11/23 05:56:08;;;;;;;39.40;25.73;;;;;;;;;;5033791;28;20063;-62
2021/11/23 05:58:34;;;;;;;39.72;28.65;;;;;;;;;;5032143;28;20032;-64
2021/11/23 06:01:00;;;;;;;42.33;28.67;;;;;;;;;;5033415;28;20021;-65
2021/11/23 06:03:28;;;;;;;40.38;29.10;;;;;;;;;;5033036;28;20397;-64
2021/11/23 06:05:54;;;;;;;44.60;28.38;;;;;;;;;;5032377;28;20108;-64
2021/11/23 06:08:20;;;;;;;46.80;30.10;;;;;;;;;;5054968;22;20127;-63
2021/11/23 06:10:45;;;;;;;44.95;29.27;;;;;;;;;;5031623;28;20029;-65
2021/11/23 06:13:12;;;;;;;47.33;31.48;;;;;;;;;;5031010;28;20474;-65
2021/11/23 06:15:41;;;;;;;47.05;31.40;;;;;;;;;;5030519;28;20485;-63
2021/11/23 06:18:09;;;;;;;;;;;;;;;;;;5030350;28;20025;-64
2021/11/23 06:20:36;;;;;;;44.45;28.83;;;;;;;;;;5031533;28;19905;-64
2021/11/23 06:23:03;;;;;;;44.10;29.60;;;;;;;;;;5029821;28;20476;-65
2021/11/23 06:25:29;;;;;;;43.20;28.85;;;;;;;;;;5031191;28;20025;-66
2021/11/23 06:27:56;;;;;;;39.42;28.17;;;;;;;;;;5029880;28;20420;-63
2021/11/23 06:30:22;;;;;;;42.55;30.15;;;;;;;;;;5029904;28;20447;-65
2021/11/23 06:32:49;;;;;;;45.95;28.95;;;;;;;;;;5030929;28;20021;-62
2021/11/23 06:35:15;;;;;;;48.30;28.60;;;;;;;;;;5030922;28;20034;-64
2021/11/23 06:37:41;;;;;;;43.85;28.65;;;;;;;;;;5029660;28;20386;-64
2021/11/23 06:40:08;;;;;;;43.80;25.20;;;;;;;;;;5029848;28;20520;-65
2021/11/23 06:42:34;;;;;;;37.95;26.13;;;;;;;;;;5030765;28;20022;-65
2021/11/23 06:45:00;;;;;;;36.17;25.90;;;;;;;;;;5031067;28;20022;-65
2021/11/23 06:47:26;;;;;;;37.80;26.75;;;;;;;;;;5030820;28;20444;-64
2021/11/23 06:49:52;;;;;;;41.85;26.00;;;;;;;;;;5029574;28;20029;-63
2021/11/23 06:52:19;;;;;;;42.83;27.52;;;;;;;;;;5028736;28;20087;-58
2021/11/23 06:54:45;;;;;;;39.63;25.77;;;;;;;;;;5029274;28;20057;-65
2021/11/23 06:57:11;;;;;;;39.72;25.55;;;;;;;;;;5030520;28;20029;-60
2021/11/23 06:59:38;;;;;;;37.38;26.52;;;;;;;;;;5028575;28;20069;-64
2021/11/23 07:02:04;;;;;;;38.03;26.90;;;;;;;;;;5027985;28;20032;-61
2021/11/23 07:04:30;;;;;;;39.00;27.70;;;;;;;;;;5029910;28;20419;-65
2021/11/23 07:06:56;;;;;;;38.80;27.83;;;;;;;;;;5030601;28;20346;-59
2021/11/23 07:09:22;;;;;;;42.30;27.88;;;;;;;;;;5028697;28;20382;-63
2021/11/23 07:11:48;;;;;;;38.88;27.40;;;;;;;;;;5030083;28;20480;-62
2021/11/23 07:14:14;;;;;;;34.75;25.90;;;;;;;;;;5030144;28;20021;-63
2021/11/23 07:16:40;;;;;;;38.63;27.83;;;;;;;;;;5028355;28;20090;-62
2021/11/23 07:19:07;;;;;;;39.78;26.88;;;;;;;;;;5030187;28;20075;-61
2021/11/23 07:21:33;;;;;;;39.72;27.15;;;;;;;;;;5030244;28;20067;-64
2021/11/23 07:23:59;;;;;;;37.58;26.30;;;;;;;;;;5029588;28;20033;-63
2021/11/23 07:26:30;;;;;;;36.42;25.25;;;;;;;;;;5028553;28;20025;-64
2021/11/23 07:28:56;;;;;;;37.90;25.10;;;;;;;;;;5029598;28;20560;-64
2021/11/23 07:31:22;;;;;;;37.60;24.10;;;;;;;;;;5030030;28;20033;-65
2021/11/23 07:33:48;;;;;;;36.53;24.05;;;;;;;;;;5029664;28;20532;-60
2021/11/23 07:36:17;;;;;;;36.65;24.42;;;;;;;;;;5028892;28;20068;-63
2021/11/23 07:38:43;;;;;;;34.80;26.23;;;;;;;;;;5030283;28;20075;-61
2021/11/23 07:41:09;;;;;;;38.28;27.40;;;;;;;;;;5030319;28;20030;-61
2021/11/23 07:43:35;;;;;;;36.70;25.95;;;;;;;;;;5029435;28;20513;-62
2021/11/23 07:46:01;;;;;;;36.70;27.73;;;;;;;;;;5030072;28;20057;-61
2021/11/23 07:48:27;;;;;;;37.35;28.20;;;;;;;;;;5029921;28;20465;-64
2021/11/23 07:50:53;;;;;;;36.83;25.80;;;;;;;;;;5028564;28;20088;-63
2021/11/23 07:53:19;;;;;;;34.53;24.88;;;;;;;;;;5029659;28;20442;-61
2021/11/23 07:55:49;;;;;;;35.83;25.52;;;;;;;;;;5029776;28;20079;-64
2021/11/23 07:58:15;;;;;;;39.83;25.98;;;;;;;;;;5030031;28;20017;-64
2021/11/23 08:00:41;;;;;;;36.28;25.10;;;;;;;;;;5029726;28;20030;-63
2021/11/23 08:03:09;;;;;;;37.83;25.58;;;;;;;;;;5029794;28;20096;-64
2021/11/23 08:05:37;;;;;;;42.40;28.30;;;;;;;;;;5030145;28;20021;-65
2021/11/23 08:08:03;;;;;;;39.67;26.60;;;;;;;;;;5030028;28;20037;-64
2021/11/23 08:10:29;;;;;;;38.33;27.95;;;;;;;;;;5028894;28;20036;-64
2021/11/23 08:12:55;;;;;;;39.10;29.65;;;;;;;;;;5030092;28;20097;-64
2021/11/23 08:15:21;;;;;;;36.60;26.38;;;;;;;;;;5030032;28;20037;-65
2021/11/23 08:17:48;;;;;;;41.15;26.05;;;;;;;;;;5030127;28;20378;-62
2021/11/23 08:20:15;;;;;;;41.95;28.20;;;;;;;;;;5030045;28;20024;-66
2021/11/23 08:22:41;;;;;;;49.13;27.88;;;;;;;;;;5029783;28;20021;-65
2021/11/23 08:25:08;;;;;;;41.03;28.17;;;;;;;;;;5028744;28;20064;-64
2021/11/23 08:27:34;;;;;;;38.17;26.70;;;;;;;;;;5025165;28;20108;-63
2021/11/23 08:30:00;;;;;;;41.90;27.77;;;;;;;;;;5028672;28;20034;-66
2021/11/23 08:32:26;;;;;;;45.88;30.58;;;;;;;;;;5028643;28;20153;-64
2021/11/23 08:34:52;;;;;;;45.60;29.65;;;;;;;;;;5029940;28;20032;-65
2021/11/23 08:37:19;;;;;;;42.55;27.10;;;;;;;;;;5029805;28;20029;-64
2021/11/23 08:39:45;;;;;;;45.25;29.48;;;;;;;;;;5033214;28;20025;-66
2021/11/23 08:42:12;;;;;;;44.55;26.17;;;;;;;;;;5033426;28;20108;-66
2021/11/23 08:44:38;;;;;;;43.67;27.10;;;;;;;;;;5033681;28;20465;-66
2021/11/23 08:47:04;;;;;;;43.55;27.90;;;;;;;;;;5031913;28;20026;-65
2021/11/23 08:49:30;;;;;;;43.47;26.70;;;;;;;;;;5032118;28;20063;-66
2021/11/23 08:51:57;;;;;;;44.80;28.27;;;;;;;;;;5033131;28;20049;-65
2021/11/23 08:54:23;;;;;;;43.85;29.55;;;;;;;;;;5033375;28;20032;-67
2021/11/23 08:57:00;;;;;;;43.03;29.38;;;;;;;;;;5033118;28;20400;-64
2021/11/23 08:59:26;;;;;;;42.35;29.48;;;;;;;;;;5033333;28;20025;-67
2021/11/23 09:01:52;;;;;;;46.20;28.70;;;;;;;;;;5031684;28;20081;-66
2021/11/23 09:04:18;;;;;;;44.92;29.77;;;;;;;;;;5033264;28;20028;-65
2021/11/23 09:06:44;;;;;;;40.33;27.80;;;;;;;;;;5031809;28;20039;-65
2021/11/23 09:09:11;;;;;;;40.08;30.13;;;;;;;;;;5031730;28;20192;-66
2021/11/23 09:11:38;;;;;;;36.88;27.25;;;;;;;;;;5033032;28;20117;-66
2021/11/23 09:14:05;;;;;;;44.13;29.80;;;;;;;;;;5032077;28;20037;-65
2021/11/23 09:16:34;;;;;;;49.13;29.02;;;;;;;;;;5031847;28;20026;-66
2021/11/23 09:19:01;;;;;;;51.45;27.77;;;;;;;;;;5031660;28;20029;-65
2021/11/23 09:21:28;;;;;;;37.92;28.08;;;;;;;;;;5031262;28;20497;-66
2021/11/23 09:23:55;;;;;;;42.65;28.20;;;;;;;;;;5032657;28;20017;-66
2021/11/23 09:26:22;;;;;;;40.67;26.58;;;;;;;;;;5032756;28;20025;-65
2021/11/23 09:28:48;;;;;;;43.25;28.25;;;;;;;;;;5031030;28;20022;-66
2021/11/23 09:31:14;;;;;;;37.45;26.45;;;;;;;;;;5032748;28;20026;-67
2021/11/23 09:33:40;;;;;;;35.72;26.95;;;;;;;;;;5032626;28;20691;-69
2021/11/23 09:36:07;;;;;;;40.15;28.98;;;;;;;;;;5034514;28;20029;-67
2021/11/23 09:38:36;;;;;;;45.63;28.48;;;;;;;;;;5033484;28;20028;-67
2021/11/23 09:41:02;;;;;;;44.08;28.20;;;;;;;;;;5032967;28;20084;-68
2021/11/23 09:43:28;;;;;;;38.60;24.67;;;;;;;;;;5033980;28;20088;-66
2021/11/23 09:45:54;;;;;;;41.03;29.02;;;;;;;;;;5031018;28;20053;-68
2021/11/23 09:48:21;;;;;;;42.22;28.13;;;;;;;;;;5032411;28;20430;-67
2021/11/23 09:50:47;;;;;;;49.47;28.88;;;;;;;;;;5031935;28;20021;-67
2021/11/23 09:53:14;;;;;;;44.78;27.15;;;;;;;;;;5030730;28;20021;-67
2021/11/23 09:55:41;;;;;;;40.47;28.02;;;;;;;;;;5032073;28;20607;-67
2021/11/23 09:58:09;;;;;;;40.92;27.52;;;;;;;;;;5032138;28;20025;-67
2021/11/23 10:00:35;;;;;;;;;;;;;;;;;;5031286;28;20101;-67
2021/11/23 10:03:12;;;;;;;38.00;27.23;;;;;;;;;;5031843;28;20289;-67
2021/11/23 10:05:39;;;;;;;44.53;29.23;;;;;;;;;;5032677;28;20021;-68
2021/11/23 10:08:07;;;;;;;40.67;27.73;;;;;;;;;;5030690;28;20087;-68
2021/11/23 10:10:39;;;;;;;46.95;30.42;;;;;;;;;;5031569;28;20394;-68
2021/11/23 10:13:05;;;;;;;41.05;28.20;;;;;;;;;;5011868;28;20022;-67
2021/11/23 10:15:37;;;;;;;39.42;27.35;;;;;;;;;;5012079;28;20024;-67
2021/11/23 10:18:23;;;;;;;40.47;27.40;;;;;;;;;;5010989;28;20077;-67
2021/11/23 10:20:57;;;;;;;40.58;28.98;;;;;;;;;;5010698;28;20022;-67
2021/11/23 10:23:25;;;;;;;43.25;28.13;;;;;;;;;;5011634;28;20022;-67
2021/11/23 10:25:53;;;;;;;45.33;27.98;;;;;;;;;;5010783;28;20022;-65
2021/11/23 10:28:21;;;;;;;45.15;29.38;;;;;;;;;;5011640;28;20026;-65
2021/11/23 10:30:48;;;;;;;45.85;30.02;;;;;;;;;;5011725;28;20021;-65
2021/11/23 10:33:16;;;;;;;48.97;30.13;;;;;;;;;;5011610;28;20022;-65
2021/11/23 10:35:43;;;;;;;46.92;30.88;;;;;;;;;;5010325;28;20458;-65
2021/11/23 10:38:10;;;;;;;53.75;31.50;;;;;;;;;;5010271;28;20034;-65
2021/11/23 10:40:40;;;;;;;43.05;28.88;;;;;;;;;;5011549;28;20022;-65
2021/11/23 10:43:07;;;;;;;43.97;29.67;;;;;;;;;;5010047;28;20022;-64
2021/11/23 10:45:35;;;;;;;45.35;32.15;;;;;;;;;;5011543;28;20022;-65
2021/11/23 10:48:03;;;;;;;63.17;31.90;;;;;;;;;;5010183;28;20065;-65
2021/11/23 10:50:29;;;;;;;45.77;29.77;;;;;;;;;;5011992;28;20403;-66
2021/11/23 10:52:55;;;;;;;42.60;29.05;;;;;;;;;;5011209;28;20025;-65
2021/11/23 10:55:25;;;;;;;43.10;31.40;;;;;;;;;;5009978;28;20022;-66
2021/11/23 10:57:53;;;;;;;49.92;30.90;;;;;;;;;;5009690;28;20497;-65
2021/11/23 11:00:19;;;;;;;50.45;32.30;;;;;;;;;;5010790;28;20057;-64
2021/11/23 11:02:45;;;;;;;48.65;32.63;;;;;;;;;;5024479;28;20381;-64
2021/11/23 11:05:14;;;;;;;50.42;30.95;;;;;;;;;;5030886;28;20391;-65
2021/11/23 11:07:41;;;;;;;65.15;34.85;;;;;;;;;;5030531;28;20148;-65
2021/11/23 11:10:08;;;;;;;42.70;31.65;;;;;;;;;;5030712;28;20033;-65
2021/11/23 11:12:35;;;;;;;55.23;32.60;;;;;;;;;;5029104;28;20025;-65
2021/11/23 11:15:02;;;;;;;49.75;33.63;;;;;;;;;;5030828;28;20445;-64
2021/11/23 11:17:28;;;;;;;47.60;31.77;;;;;;;;;;5029524;28;20033;-64
2021/11/23 11:19:55;;;;;;;50.13;33.00;;;;;;;;;;5031005;28;20071;-64
2021/11/23 11:22:25;;;;;;;54.08;34.38;;;;;;;;;;5030794;28;20096;-65
2021/11/23 11:24:56;;;;;;;52.15;35.90;;;;;;;;;;5031180;28;20104;-64
2021/11/23 11:27:32;;;;;;;51.55;31.45;;;;;;;;;;5046958;28;20465;-64
2021/11/23 11:30:16;;;;;;;52.45;32.40;;;;;;;;;;5050962;28;20379;-64
2021/11/23 11:32:43;;;;;;;50.35;32.75;;;;;;;;;;5050850;28;20444;-65
2021/11/23 11:35:24;;;;;;;45.10;30.73;;;;;;;;;;5050842;28;20112;-63
2021/11/23 11:37:51;;;;;;;59.55;33.67;;;;;;;;;;5050484;28;20017;-66
2021/11/23 11:40:21;;;;;;;50.70;35.38;;;;;;;;;;5050909;28;20663;-65
2021/11/23 11:42:49;;;;;;;51.15;33.63;;;;;;;;;;5050740;28;20052;-65
2021/11/23 11:45:16;;;;;;;55.30;35.05;;;;;;;;;;5044677;28;20026;-65
2021/11/23 11:47:45;;;;;;;51.08;34.13;;;;;;;;;;5026643;28;20029;-64
2021/11/23 11:50:16;;;;;;;53.38;32.42;;;;;;;;;;5030775;28;20022;-63
2021/11/23 11:52:54;;;;;;;48.38;32.42;;;;;;;;;;5030305;28;20155;-65
2021/11/23 11:55:22;;;;;;;47.00;32.60;;;;;;;;;;5030625;28;20026;-65
2021/11/23 11:57:49;;;;;;;39.08;30.98;;;;;;;;;;5028813;28;20505;-65
2021/11/23 12:00:27;;;;;;;42.65;30.33;;;;;;;;;;5030652;28;20060;-65
2021/11/23 12:02:54;;;;;;;40.28;30.20;;;;;;;;;;5030317;28;20032;-65
2021/11/23 12:05:21;;;;;;;44.88;29.90;;;;;;;;;;5030226;28;20033;-66
2021/11/23 12:10:24;;;;;;;41.92;29.70;;;;;;;;;;5048585;22;20103;-64
2021/11/23 12:12:56;;;;;;;38.13;27.88;;;;;;;;;;5031787;28;20022;-64
2021/11/23 12:15:25;;;;;;;37.50;26.52;;;;;;;;;;5034227;28;20022;-65
2021/11/23 12:18:03;;;;;;;48.90;30.77;;;;;;;;;;5035315;28;20477;-64
2021/11/23 12:20:33;;;;;;;41.50;29.27;;;;;;;;;;5015876;28;20076;-64
2021/11/23 12:23:15;;;;;;;44.75;30.13;;;;;;;;;;5015168;28;20017;-64
2021/11/23 12:25:51;;;;;;;40.90;30.23;;;;;;;;;;5014807;28;20030;-64
2021/11/23 12:28:17;;;;;;;40.55;29.88;;;;;;;;;;5014036;28;20030;-64
2021/11/23 12:30:43;;;;;;;46.22;31.52;;;;;;;;;;5014222;28;20071;-64
2021/11/23 12:33:10;;;;;;;42.97;30.13;;;;;;;;;;5013819;28;20033;-64
2021/11/23 12:35:39;;;;;;;42.08;29.60;;;;;;;;;;5015276;28;20026;-64
2021/11/23 12:38:06;;;;;;;46.22;29.63;;;;;;;;;;5015380;28;20190;-66
2021/11/23 12:40:32;;;;;;;47.80;32.80;;;;;;;;;;5015167;28;20021;-65
2021/11/23 12:43:05;;;;;;;44.33;32.25;;;;;;;;;;5014103;28;20033;-65
2021/11/23 12:45:34;;;;;;;46.60;32.05;;;;;;;;;;5015192;28;20584;-65
2021/11/23 12:48:00;;;;;;;48.72;33.42;;;;;;;;;;5014962;28;20455;-65
2021/11/23 12:50:30;;;;;;;54.38;33.15;;;;;;;;;;5015153;28;20032;-65
2021/11/23 12:53:06;;;;;;;52.88;32.90;;;;;;;;;;5015961;28;20036;-65
2021/11/23 12:55:32;;;;;;;51.25;34.80;;;;;;;;;;5013704;28;20026;-65
2021/11/23 12:57:59;;;;;;;44.63;29.70;;;;;;;;;;5013594;28;20394;-65
2021/11/23 13:00:26;;;;;;;43.17;29.23;;;;;;;;;;5013818;28;20026;-65
2021/11/23 13:02:53;;;;;;;39.65;29.10;;;;;;;;;;5029440;28;20028;-65
2021/11/23 13:05:23;;;;;;;47.60;33.07;;;;;;;;;;5034764;28;20454;-65
2021/11/23 13:07:54;;;;;;;41.20;29.70;;;;;;;;;;5033284;28;20647;-65
2021/11/23 13:10:27;;;;;;;41.13;31.23;;;;;;;;;;5034753;28;20037;-65
2021/11/23 13:12:57;;;;;;;37.35;28.83;;;;;;;;;;5032411;28;20091;-64
2021/11/23 13:15:24;;;;;;;39.92;28.27;;;;;;;;;;5034343;28;20049;-64
2021/11/23 13:17:54;;;;;;;43.10;30.13;;;;;;;;;;5034389;28;20032;-64
2021/11/23 13:20:32;;;;;;;41.80;31.80;;;;;;;;;;5035494;28;20477;-63
2021/11/23 13:23:07;;;;;;;48.92;31.38;;;;;;;;;;5034565;28;20504;-64
2021/11/23 13:25:33;;;;;;;45.78;31.95;;;;;;;;;;5032897;28;20025;-64
2021/11/23 13:27:59;;;;;;;43.95;31.50;;;;;;;;;;5032832;28;20025;-64
2021/11/23 13:30:33;;;;;;;44.95;30.77;;;;;;;;;;5034324;28;20436;-64
2021/11/23 13:33:19;;;;;;;48.80;33.53;;;;;;;;;;5032760;28;20025;-64
2021/11/23 13:36:04;;;;;;;47.78;32.53;;;;;;;;;;5032727;28;20034;-64
2021/11/23 13:38:33;;;;;;;41.88;31.85;;;;;;;;;;5033867;28;20079;-63
2021/11/23 13:40:59;;;;;;;;;;;;;;;;;;5034384;28;20079;-64
2021/11/23 13:43:25;;;;;;;44.10;31.13;;;;;;;;;;5032656;28;19905;-63
2021/11/23 13:46:17;;;;;;;46.20;31.90;;;;;;;;;;5032260;28;20029;-64
2021/11/23 13:48:43;;;;;;;48.15;31.85;;;;;;;;;;5032182;28;20041;-64
2021/11/23 13:51:18;;;;;;;45.50;31.40;;;;;;;;;;5032654;28;20407;-64
2021/11/23 13:53:55;;;;;;;44.92;30.50;;;;;;;;;;5033791;28;20537;-64
2021/11/23 13:56:23;;;;;;;42.85;31.13;;;;;;;;;;5032528;28;20029;-64
2021/11/23 13:58:50;;;;;;;45.47;32.38;;;;;;;;;;5032271;28;20025;-64
2021/11/23 14:01:17;;;;;;;42.20;30.17;;;;;;;;;;5032261;28;20021;-64
2021/11/23 14:03:43;;;;;;;43.15;32.35;;;;;;;;;;5032085;28;20480;-64
2021/11/23 14:06:10;;;;;;;44.20;30.90;;;;;;;;;;5033712;28;20032;-64
2021/11/23 14:08:37;;;;;;;43.53;29.60;;;;;;;;;;5033535;28;20052;-64
2021/11/23 14:11:08;;;;;;;39.83;28.27;;;;;;;;;;5032405;28;20033;-64
2021/11/23 14:13:37;;;;;;;42.05;29.67;;;;;;;;;;5033002;28;20030;-64
2021/11/23 14:16:08;;;;;;;40.67;29.63;;;;;;;;;;5031927;28;20025;-64
2021/11/23 14:18:34;;;;;;;41.30;30.58;;;;;;;;;;5032847;28;20021;-64